Time;durP1;ratioP1;P1;durP2;ratioP2;P2;SDS_P1;SDS_P2;PMS_P1;PMS_P2;Temp;Humidity;BMP_temperature;BMP_pressure;BME280_temperature;BME280_humidity;BME280_pressure;Samples;Min_cycle;Max_cycle;Signal;HPM_P1;HPM_P2
2023/05/22 00:01:25;;;;;;;5.13;4.17;;;;;;;;;;5032690;28;20428;-83
2023/05/22 00:03:51;;;;;;;5.97;5.47;;;;;;;;;;5032421;28;20166;-84
2023/05/22 00:06:17;;;;;;;5.40;4.83;;;;;;;;;;5014945;28;20424;-83
2023/05/22 00:08:44;;;;;;;4.70;4.30;;;;;;;;;;5014932;28;20417;-83
2023/05/22 00:11:09;;;;;;;5.60;4.33;;;;;;;;;;5014885;28;20819;-83
2023/05/22 00:13:35;;;;;;;5.40;4.00;;;;;;;;;;5032693;28;20420;-84
2023/05/22 00:16:02;;;;;;;4.47;3.60;;;;;;;;;;5032582;28;20468;-85
2023/05/22 00:18:28;;;;;;;6.30;4.13;;;;;;;;;;5032080;28;20464;-84
2023/05/22 00:20:54;;;;;;;5.20;4.70;;;;;;;;;;5032575;28;20521;-85
2023/05/22 00:23:20;;;;;;;5.07;4.57;;;;;;;;;;5032557;28;21018;-84
2023/05/22 00:25:46;;;;;;;5.87;5.27;;;;;;;;;;5032634;28;20436;-84
2023/05/22 00:28:12;;;;;;;5.17;4.60;;;;;;;;;;5032647;28;20456;-85
2023/05/22 00:30:38;;;;;;;5.97;5.43;;;;;;;;;;5032432;28;20413;-85
2023/05/22 00:33:04;;;;;;;3.43;2.93;;;;;;;;;;5032319;28;20821;-85
2023/05/22 00:35:30;;;;;;;5.07;4.60;;;;;;;;;;5032287;28;20465;-84
2023/05/22 00:37:56;;;;;;;5.03;4.00;;;;;;;;;;5032536;28;20408;-84
2023/05/22 00:40:22;;;;;;;6.23;4.57;;;;;;;;;;5032384;28;20490;-83
2023/05/22 00:42:48;;;;;;;4.20;3.80;;;;;;;;;;5032423;28;20422;-83
2023/05/22 00:45:14;;;;;;;5.10;4.53;;;;;;;;;;5014704;28;20181;-83
2023/05/22 00:47:40;;;;;;;5.27;3.83;;;;;;;;;;5032096;28;20174;-83
2023/05/22 00:50:07;;;;;;;5.67;4.80;;;;;;;;;;5031974;28;20457;-84
2023/05/22 00:52:34;;;;;;;5.60;4.27;;;;;;;;;;5014539;28;20510;-82
2023/05/22 00:55:02;;;;;;;4.77;4.10;;;;;;;;;;5032163;28;20513;-83
2023/05/22 00:57:28;;;;;;;4.50;3.90;;;;;;;;;;5015213;28;20426;-82
2023/05/22 00:59:54;;;;;;;4.20;3.80;;;;;;;;;;5035742;28;20420;-82
2023/05/22 01:02:20;;;;;;;4.37;3.97;;;;;;;;;;5017995;28;20427;-83
2023/05/22 01:04:49;;;;;;;4.77;3.70;;;;;;;;;;5035453;28;20424;-83
2023/05/22 01:07:16;;;;;;;4.93;3.90;;;;;;;;;;5035668;28;20929;-82
2023/05/22 01:09:42;;;;;;;4.07;3.60;;;;;;;;;;5035584;28;20413;-82
2023/05/22 01:12:13;;;;;;;5.13;2.93;;;;;;;;;;5017827;28;20411;-83
2023/05/22 01:14:51;;;;;;;6.70;4.43;;;;;;;;;;5035420;28;20812;-83
2023/05/22 01:17:27;;;;;;;5.57;3.67;;;;;;;;;;5035414;28;20420;-82
2023/05/22 01:20:00;;;;;;;5.37;4.93;;;;;;;;;;5017241;28;20459;-82
2023/05/22 01:22:56;;;;;;;4.80;4.27;;;;;;;;;;5035339;28;20409;-83
2023/05/22 01:25:39;;;;;;;7.37;4.17;;;;;;;;;;5017621;28;20918;-83
2023/05/22 01:28:11;;;;;;;3.40;3.03;;;;;;;;;;5035232;28;20427;-82
2023/05/22 01:30:37;;;;;;;3.93;3.40;;;;;;;;;;5035279;28;20410;-83
2023/05/22 01:33:03;;;;;;;4.63;4.10;;;;;;;;;;5034754;28;20428;-83
2023/05/22 01:35:30;;;;;;;3.93;3.50;;;;;;;;;;5035049;28;20251;-82
2023/05/22 01:38:00;;;;;;;4.10;3.57;;;;;;;;;;5035048;28;20470;-83
2023/05/22 01:40:26;;;;;;;5.63;4.47;;;;;;;;;;5035053;28;20434;-83
2023/05/22 01:42:52;;;;;;;6.10;4.03;;;;;;;;;;5034906;28;20407;-82
2023/05/22 01:45:20;;;;;;;5.27;3.83;;;;;;;;;;5034879;28;20909;-82
2023/05/22 01:47:46;;;;;;;5.10;4.20;;;;;;;;;;5034920;28;20175;-82
2023/05/22 01:50:12;;;;;;;4.53;4.13;;;;;;;;;;5034590;28;20418;-83
2023/05/22 01:52:38;;;;;;;7.03;4.53;;;;;;;;;;5034758;28;20465;-83
2023/05/22 01:55:20;;;;;;;4.30;3.90;;;;;;;;;;5034669;28;20988;-83
2023/05/22 01:57:50;;;;;;;4.90;4.43;;;;;;;;;;5017008;28;20199;-83
2023/05/22 02:00:18;;;;;;;4.30;3.90;;;;;;;;;;5034689;28;20918;-83
2023/05/22 02:02:47;;;;;;;4.83;4.27;;;;;;;;;;5034566;28;20416;-83
2023/05/22 02:05:17;;;;;;;3.87;2.90;;;;;;;;;;5034226;28;20420;-83
2023/05/22 02:07:43;;;;;;;4.37;3.53;;;;;;;;;;5034555;28;20416;-83
2023/05/22 02:10:10;;;;;;;4.77;4.37;;;;;;;;;;5033314;28;20428;-83
2023/05/22 02:12:36;;;;;;;4.83;4.37;;;;;;;;;;5034400;28;20435;-83
2023/05/22 02:15:02;;;;;;;4.10;3.70;;;;;;;;;;5034222;28;20459;-84
2023/05/22 02:17:28;;;;;;;5.90;4.03;;;;;;;;;;5034096;28;20965;-83
2023/05/22 02:19:56;;;;;;;4.10;3.53;;;;;;;;;;5016097;28;20430;-83
2023/05/22 02:22:22;;;;;;;5.70;3.90;;;;;;;;;;5034299;28;20220;-83
2023/05/22 02:24:49;;;;;;;5.00;4.50;;;;;;;;;;5034177;28;20806;-83
2023/05/22 02:27:16;;;;;;;4.43;3.80;;;;;;;;;;5016418;28;20424;-83
2023/05/22 02:29:41;;;;;;;7.40;4.17;;;;;;;;;;5034052;28;20969;-83
2023/05/22 02:32:08;;;;;;;7.20;4.10;;;;;;;;;;5034007;28;20462;-83
2023/05/22 02:34:33;;;;;;;4.40;4.00;;;;;;;;;;5033530;28;20503;-84
2023/05/22 02:37:03;;;;;;;5.20;3.33;;;;;;;;;;5033957;28;20411;-83
2023/05/22 02:39:32;;;;;;;4.60;3.57;;;;;;;;;;5033835;28;20627;-84
2023/05/22 02:41:58;;;;;;;5.23;3.70;;;;;;;;;;5033832;28;20498;-84
2023/05/22 02:44:23;;;;;;;5.33;3.90;;;;;;;;;;5033741;28;20505;-84
2023/05/22 02:46:49;;;;;;;4.83;4.00;;;;;;;;;;5033771;28;20173;-84
2023/05/22 02:49:15;;;;;;;3.67;3.37;;;;;;;;;;5033295;28;20183;-84
2023/05/22 02:51:46;;;;;;;4.90;4.03;;;;;;;;;;5033598;28;20419;-82
2023/05/22 02:54:12;;;;;;;4.90;3.83;;;;;;;;;;5033633;28;20179;-82
2023/05/22 02:56:38;;;;;;;5.63;3.47;;;;;;;;;;5033538;28;20432;-82
2023/05/22 02:59:04;;;;;;;6.00;4.53;;;;;;;;;;5033468;28;20562;-82
2023/05/22 03:01:30;;;;;;;4.57;3.13;;;;;;;;;;5033573;28;20185;-82
2023/05/22 03:03:56;;;;;;;4.13;2.90;;;;;;;;;;5033158;28;20408;-82
2023/05/22 03:06:24;;;;;;;3.80;3.40;;;;;;;;;;5015719;28;20171;-83
2023/05/22 03:08:50;;;;;;;4.70;3.90;;;;;;;;;;5015691;28;20434;-81
2023/05/22 03:11:16;;;;;;;2.90;2.60;;;;;;;;;;5015620;28;20920;-82
2023/05/22 03:13:41;;;;;;;2.70;2.50;;;;;;;;;;5033344;28;20862;-83
2023/05/22 03:16:07;;;;;;;4.23;2.70;;;;;;;;;;5033163;28;20901;-82
2023/05/22 03:18:35;;;;;;;3.60;2.83;;;;;;;;;;5032736;28;20223;-83
2023/05/22 03:21:04;;;;;;;4.83;3.53;;;;;;;;;;5032798;28;20431;-82
2023/05/22 03:23:30;;;;;;;5.60;4.40;;;;;;;;;;5033101;28;20415;-81
2023/05/22 03:25:56;;;;;;;4.03;3.03;;;;;;;;;;5033166;28;20980;-82
2023/05/22 03:28:21;;;;;;;4.60;3.00;;;;;;;;;;5033034;28;20511;-83
2023/05/22 03:30:47;;;;;;;4.80;3.30;;;;;;;;;;5033031;28;20724;-83
2023/05/22 03:33:13;;;;;;;4.00;2.70;;;;;;;;;;5032756;28;20176;-82
2023/05/22 03:35:39;;;;;;;3.80;2.93;;;;;;;;;;5032865;28;20475;-83
2023/05/22 03:38:05;;;;;;;4.23;3.10;;;;;;;;;;5032869;28;20406;-83
2023/05/22 03:40:31;;;;;;;4.20;3.30;;;;;;;;;;5032977;28;20431;-84
2023/05/22 03:42:57;;;;;;;3.13;2.60;;;;;;;;;;5032923;28;20541;-83
2023/05/22 03:45:23;;;;;;;3.63;2.97;;;;;;;;;;5032936;28;20187;-83
2023/05/22 03:47:49;;;;;;;4.78;3.88;;;;;;;;;;5032156;28;20413;-83
2023/05/22 03:50:15;;;;;;;3.37;2.47;;;;;;;;;;5032773;28;20199;-84
2023/05/22 03:52:41;;;;;;;3.93;3.60;;;;;;;;;;5032690;28;20414;-84
2023/05/22 03:55:07;;;;;;;4.50;3.47;;;;;;;;;;5032526;28;20472;-84
2023/05/22 03:57:33;;;;;;;3.73;2.93;;;;;;;;;;5032814;28;20418;-85
2023/05/22 04:00:05;;;;;;;4.90;3.10;;;;;;;;;;5032776;28;20422;-85
2023/05/22 04:02:31;;;;;;;5.27;3.20;;;;;;;;;;5014807;28;20180;-84
2023/05/22 04:04:57;;;;;;;4.20;3.67;;;;;;;;;;5032732;28;20474;-85
2023/05/22 04:07:23;;;;;;;5.03;3.30;;;;;;;;;;5015073;28;20449;-83
2023/05/22 04:09:49;;;;;;;4.10;3.40;;;;;;;;;;5015023;28;20408;-83
2023/05/22 04:12:15;;;;;;;5.63;2.80;;;;;;;;;;5032732;28;20235;-83
2023/05/22 04:14:41;;;;;;;5.00;3.40;;;;;;;;;;5014803;28;20206;-84
2023/05/22 04:17:07;;;;;;;4.97;3.23;;;;;;;;;;5032609;28;20179;-83
2023/05/22 04:19:33;;;;;;;3.70;3.23;;;;;;;;;;5031959;28;20709;-84
2023/05/22 04:21:59;;;;;;;3.27;2.80;;;;;;;;;;5032474;28;20210;-83
2023/05/22 04:24:26;;;;;;;5.30;3.13;;;;;;;;;;5032620;28;20418;-83
2023/05/22 04:26:59;;;;;;;4.90;4.50;;;;;;;;;;5032487;28;20455;-83
2023/05/22 04:29:31;;;;;;;6.03;4.00;;;;;;;;;;5014810;28;20474;-84
2023/05/22 04:31:59;;;;;;;5.70;2.97;;;;;;;;;;5032389;28;20413;-84
2023/05/22 04:34:25;;;;;;;3.57;2.90;;;;;;;;;;5035819;28;20507;-85
2023/05/22 04:36:51;;;;;;;3.50;3.10;;;;;;;;;;5018511;28;20432;-84
2023/05/22 04:39:17;;;;;;;8.63;3.10;;;;;;;;;;5036339;28;20412;-84
2023/05/22 04:41:44;;;;;;;4.57;3.33;;;;;;;;;;5036192;28;20420;-84
2023/05/22 04:44:10;;;;;;;3.00;2.40;;;;;;;;;;5018296;28;20783;-83
2023/05/22 04:46:37;;;;;;;5.10;2.63;;;;;;;;;;5036016;28;20424;-85
2023/05/22 04:49:03;;;;;;;3.20;2.90;;;;;;;;;;5035640;28;20848;-85
2023/05/22 04:51:30;;;;;;;4.07;2.90;;;;;;;;;;5035898;28;20495;-87
2023/05/22 04:53:57;;;;;;;3.67;2.53;;;;;;;;;;5035791;28;20913;-86
2023/05/22 04:56:23;;;;;;;4.20;3.00;;;;;;;;;;5035867;28;20571;-86
2023/05/22 04:58:49;;;;;;;2.87;2.67;;;;;;;;;;5018034;28;20810;-86
2023/05/22 05:01:15;;;;;;;3.83;2.77;;;;;;;;;;5035801;28;20427;-86
2023/05/22 05:03:41;;;;;;;4.23;3.83;;;;;;;;;;5035355;28;20413;-85
2023/05/22 05:06:07;;;;;;;2.30;1.80;;;;;;;;;;5035647;28;20415;-85
2023/05/22 05:08:33;;;;;;;4.27;3.00;;;;;;;;;;5035650;28;20401;-85
2023/05/22 05:10:59;;;;;;;3.60;3.00;;;;;;;;;;5035559;28;20582;-83
2023/05/22 05:13:25;;;;;;;4.47;2.93;;;;;;;;;;5035575;28;20405;-84
2023/05/22 05:15:51;;;;;;;2.50;2.30;;;;;;;;;;5035427;28;20220;-87
2023/05/22 05:18:18;;;;;;;3.10;2.80;;;;;;;;;;5034894;28;20527;-84
2023/05/22 05:20:44;;;;;;;3.10;2.53;;;;;;;;;;5035443;28;20997;-84
2023/05/22 05:23:10;;;;;;;4.13;2.60;;;;;;;;;;5035474;28;20443;-83
2023/05/22 05:25:37;;;;;;;3.97;2.77;;;;;;;;;;5035332;28;20178;-83
2023/05/22 05:28:09;;;;;;;2.87;2.60;;;;;;;;;;5035322;28;20494;-83
2023/05/22 05:30:35;;;;;;;3.67;2.60;;;;;;;;;;5035220;28;20412;-85
2023/05/22 05:33:01;;;;;;;4.97;3.40;;;;;;;;;;5017144;28;20421;-83
2023/05/22 05:35:27;;;;;;;3.33;2.70;;;;;;;;;;5034986;28;20228;-83
2023/05/22 05:37:52;;;;;;;4.50;2.80;;;;;;;;;;5035173;28;20167;-82
2023/05/22 05:40:18;;;;;;;3.60;2.83;;;;;;;;;;5034992;28;20632;-82
2023/05/22 05:42:44;;;;;;;4.30;2.90;;;;;;;;;;5034955;28;20184;-83
2023/05/22 05:45:10;;;;;;;4.57;3.23;;;;;;;;;;5016193;28;20482;-83
2023/05/22 05:47:36;;;;;;;4.13;3.17;;;;;;;;;;5034897;28;20633;-82
2023/05/22 05:50:02;;;;;;;2.70;2.50;;;;;;;;;;5034806;28;20424;-83
2023/05/22 05:52:31;;;;;;;4.33;2.40;;;;;;;;;;5017062;28;20181;-82
2023/05/22 05:54:57;;;;;;;4.00;3.07;;;;;;;;;;5034538;28;20465;-82
2023/05/22 05:57:23;;;;;;;3.17;2.90;;;;;;;;;;5034554;28;20935;-83
2023/05/22 05:59:49;;;;;;;3.77;3.10;;;;;;;;;;5034592;28;20410;-83
2023/05/22 06:02:15;;;;;;;7.53;3.13;;;;;;;;;;5016484;28;20187;-84
2023/05/22 06:04:41;;;;;;;2.80;2.43;;;;;;;;;;5034422;28;20410;-84
2023/05/22 06:07:07;;;;;;;4.37;2.23;;;;;;;;;;5034335;28;20180;-85
2023/05/22 06:09:33;;;;;;;3.30;3.00;;;;;;;;;;5034323;28;20421;-83
2023/05/22 06:12:00;;;;;;;4.33;3.07;;;;;;;;;;5034368;28;20173;-83
2023/05/22 06:14:26;;;;;;;3.37;2.20;;;;;;;;;;5034225;28;20493;-84
2023/05/22 06:16:52;;;;;;;2.80;2.60;;;;;;;;;;5034340;28;20857;-83
2023/05/22 06:19:18;;;;;;;4.80;3.20;;;;;;;;;;5033809;28;20558;-84
2023/05/22 06:21:44;;;;;;;3.83;2.47;;;;;;;;;;5034151;28;20443;-85
2023/05/22 06:24:10;;;;;;;4.83;2.13;;;;;;;;;;5034245;28;20180;-83
2023/05/22 06:26:36;;;;;;;3.20;2.37;;;;;;;;;;5033981;28;20445;-83
2023/05/22 06:29:02;;;;;;;4.70;2.70;;;;;;;;;;5046544;28;20215;-89
2023/05/22 06:31:28;;;;;;;4.27;3.03;;;;;;;;;;5054340;28;20438;-89
2023/05/22 06:33:54;;;;;;;2.23;2.03;;;;;;;;;;5054244;28;20504;-85
2023/05/22 06:36:20;;;;;;;3.63;2.77;;;;;;;;;;5036448;28;20565;-82
2023/05/22 06:38:48;;;;;;;2.63;1.83;;;;;;;;;;5053988;28;20458;-81
2023/05/22 06:41:14;;;;;;;2.53;2.33;;;;;;;;;;5053779;28;20912;-80
2023/05/22 06:43:40;;;;;;;4.20;2.70;;;;;;;;;;5053785;28;20407;-80
2023/05/22 06:46:06;;;;;;;3.40;3.10;;;;;;;;;;5053697;28;20510;-81
2023/05/22 06:48:34;;;;;;;3.17;2.43;;;;;;;;;;5053347;28;20181;-81
2023/05/22 06:51:00;;;;;;;3.53;1.83;;;;;;;;;;5036058;28;20541;-81
2023/05/22 06:53:26;;;;;;;3.57;2.60;;;;;;;;;;5053533;28;20419;-81
2023/05/22 06:55:52;;;;;;;3.53;2.20;;;;;;;;;;5052826;28;20468;-81
2023/05/22 06:58:18;;;;;;;3.90;2.60;;;;;;;;;;5052791;28;20639;-81
2023/05/22 07:00:44;;;;;;;3.17;2.87;;;;;;;;;;5053401;28;20189;-81
2023/05/22 07:03:10;;;;;;;2.63;2.10;;;;;;;;;;5053037;28;20173;-81
2023/05/22 07:05:36;;;;;;;2.50;2.07;;;;;;;;;;5053423;28;20463;-81
2023/05/22 07:08:02;;;;;;;4.17;2.70;;;;;;;;;;5053324;28;20428;-81
2023/05/22 07:10:28;;;;;;;4.07;2.43;;;;;;;;;;5053299;28;20955;-82
2023/05/22 07:12:54;;;;;;;2.57;2.17;;;;;;;;;;5053191;28;20197;-82
2023/05/22 07:15:20;;;;;;;4.87;2.43;;;;;;;;;;5053044;28;20499;-82
2023/05/22 07:17:46;;;;;;;1.90;1.80;;;;;;;;;;5052616;28;20217;-82
2023/05/22 07:20:14;;;;;;;3.73;2.30;;;;;;;;;;5053181;28;20188;-82
2023/05/22 07:22:40;;;;;;;3.83;2.57;;;;;;;;;;5053083;28;20165;-81
2023/05/22 07:25:07;;;;;;;2.97;2.63;;;;;;;;;;5035288;28;20976;-83
2023/05/22 07:27:33;;;;;;;3.77;2.23;;;;;;;;;;5053041;28;20224;-82
2023/05/22 07:29:59;;;;;;;2.77;2.23;;;;;;;;;;5052940;28;20420;-81
2023/05/22 07:32:25;;;;;;;4.07;2.30;;;;;;;;;;5052593;28;20174;-83
2023/05/22 07:34:51;;;;;;;2.17;1.67;;;;;;;;;;5034881;28;20456;-83
2023/05/22 07:37:17;;;;;;;2.43;1.93;;;;;;;;;;5052952;28;20209;-82
2023/05/22 07:39:45;;;;;;;2.90;2.27;;;;;;;;;;5052905;28;20519;-83
2023/05/22 07:42:13;;;;;;;3.57;2.00;;;;;;;;;;5052831;28;20405;-82
2023/05/22 07:44:39;;;;;;;4.03;1.50;;;;;;;;;;5052756;28;20443;-82
2023/05/22 07:47:05;;;;;;;2.57;2.17;;;;;;;;;;5052372;28;20440;-82
2023/05/22 07:49:32;;;;;;;2.03;1.83;;;;;;;;;;5052773;28;20178;-82
2023/05/22 07:51:58;;;;;;;3.70;2.23;;;;;;;;;;5043693;28;20409;-83
2023/05/22 07:54:24;;;;;;;3.33;2.03;;;;;;;;;;5014996;28;20487;-81
2023/05/22 07:56:50;;;;;;;2.00;1.77;;;;;;;;;;5032776;28;20181;-81
2023/05/22 07:59:18;;;;;;;1.93;1.53;;;;;;;;;;5032803;28;20496;-82
2023/05/22 08:01:44;;;;;;;2.13;1.93;;;;;;;;;;5032763;28;20583;-82
2023/05/22 08:04:10;;;;;;;3.73;2.10;;;;;;;;;;5032429;28;20890;-82
2023/05/22 08:06:36;;;;;;;2.50;2.00;;;;;;;;;;5033817;28;20416;-81
2023/05/22 08:09:03;;;;;;;3.57;1.87;;;;;;;;;;5036690;28;20233;-81
2023/05/22 08:11:29;;;;;;;2.50;1.80;;;;;;;;;;5036725;28;20253;-82
2023/05/22 08:13:55;;;;;;;2.67;2.00;;;;;;;;;;5036554;28;20463;-83
2023/05/22 08:16:21;;;;;;;2.20;1.50;;;;;;;;;;5018771;28;20377;-83
2023/05/22 08:18:47;;;;;;;2.03;1.83;;;;;;;;;;5036134;28;20234;-81
2023/05/22 08:21:13;;;;;;;2.27;2.07;;;;;;;;;;5036516;28;20483;-83
2023/05/22 08:23:39;;;;;;;2.23;1.67;;;;;;;;;;5036501;28;20178;-82
2023/05/22 08:26:07;;;;;;;2.67;2.07;;;;;;;;;;5036494;28;20714;-82
2023/05/22 08:28:33;;;;;;;2.60;2.03;;;;;;;;;;5036314;28;20224;-83
2023/05/22 08:30:59;;;;;;;2.20;1.80;;;;;;;;;;5036384;28;20421;-82
2023/05/22 08:33:25;;;;;;;3.57;2.07;;;;;;;;;;5035962;28;20201;-82
2023/05/22 08:35:51;;;;;;;3.23;2.60;;;;;;;;;;5036157;28;20216;-82
2023/05/22 08:38:17;;;;;;;2.07;1.87;;;;;;;;;;5036293;28;20894;-82
2023/05/22 08:40:46;;;;;;;1.67;1.33;;;;;;;;;;5036174;28;20186;-82
2023/05/22 08:43:12;;;;;;;2.20;2.00;;;;;;;;;;5018261;28;20174;-82
2023/05/22 08:45:41;;;;;;;2.37;1.87;;;;;;;;;;5036108;28;20412;-81
2023/05/22 08:48:11;;;;;;;4.70;1.93;;;;;;;;;;5035706;28;20530;-81
2023/05/22 08:50:40;;;;;;;2.53;2.20;;;;;;;;;;5050852;28;20431;-83
2023/05/22 08:53:07;;;;;;;2.70;2.50;;;;;;;;;;5037974;28;20510;-83
2023/05/22 08:55:33;;;;;;;2.40;1.60;;;;;;;;;;5055757;28;20467;-82
2023/05/22 08:58:00;;;;;;;4.03;2.23;;;;;;;;;;5055785;28;20737;-83
2023/05/22 09:00:26;;;;;;;2.20;2.00;;;;;;;;;;5037930;28;20479;-81
2023/05/22 09:02:52;;;;;;;2.10;1.80;;;;;;;;;;5037402;28;20507;-82
2023/05/22 09:05:17;;;;;;;2.63;1.93;;;;;;;;;;5055622;28;20455;-80
2023/05/22 09:07:44;;;;;;;3.13;1.30;;;;;;;;;;5037718;28;20835;-82
2023/05/22 09:10:13;;;;;;;2.90;1.57;;;;;;;;;;5055531;28;20513;-82
2023/05/22 09:12:59;;;;;;;1.93;1.70;;;;;;;;;;5055421;28;20400;-82
2023/05/22 09:15:31;;;;;;;2.33;2.13;;;;;;;;;;5055317;28;20533;-82
2023/05/22 09:17:58;;;;;;;1.93;1.50;;;;;;;;;;5054110;28;20518;-83
2023/05/22 09:20:24;;;;;;;2.10;1.80;;;;;;;;;;5037509;28;20420;-82
2023/05/22 09:22:49;;;;;;;2.80;1.97;;;;;;;;;;5055320;28;20443;-84
2023/05/22 09:25:17;;;;;;;2.63;1.77;;;;;;;;;;5055254;28;20841;-81
2023/05/22 09:27:50;;;;;;;4.07;1.97;;;;;;;;;;5055150;28;20181;-82
2023/05/22 09:30:16;;;;;;;1.67;1.17;;;;;;;;;;5055145;28;20413;-81
2023/05/22 09:32:43;;;;;;;3.30;1.17;;;;;;;;;;5043093;28;20413;-81
2023/05/22 09:35:09;;;;;;;3.20;2.23;;;;;;;;;;5034876;28;20534;-83
2023/05/22 09:37:36;;;;;;;2.57;1.77;;;;;;;;;;5035162;28;20504;-82
2023/05/22 09:40:05;;;;;;;2.90;1.97;;;;;;;;;;5035082;28;20448;-81
2023/05/22 09:42:33;;;;;;;1.60;1.50;;;;;;;;;;5035063;28;20441;-83
2023/05/22 09:45:03;;;;;;;1.53;1.43;;;;;;;;;;5034958;28;20413;-82
2023/05/22 09:47:28;;;;;;;1.70;1.60;;;;;;;;;;5034666;28;20394;-82
2023/05/22 09:49:57;;;;;;;1.90;1.60;;;;;;;;;;5034959;28;20737;-83
2023/05/22 09:52:23;;;;;;;2.17;1.97;;;;;;;;;;5034854;28;20185;-81
2023/05/22 09:54:54;;;;;;;2.90;1.60;;;;;;;;;;5034559;28;20990;-83
2023/05/22 09:57:20;;;;;;;2.20;1.60;;;;;;;;;;5034671;28;20440;-81
2023/05/22 09:59:59;;;;;;;3.00;1.77;;;;;;;;;;5034664;28;20441;-82
2023/05/22 10:02:25;;;;;;;1.70;1.47;;;;;;;;;;5034401;28;20448;-80
2023/05/22 10:04:52;;;;;;;1.67;1.50;;;;;;;;;;5034762;28;20448;-80
2023/05/22 10:07:21;;;;;;;2.43;2.23;;;;;;;;;;5034598;28;20424;-83
2023/05/22 10:09:50;;;;;;;2.30;2.10;;;;;;;;;;5034440;28;20427;-82
2023/05/22 10:12:19;;;;;;;2.07;1.77;;;;;;;;;;5016325;28;20409;-82
2023/05/22 10:14:45;;;;;;;2.87;2.10;;;;;;;;;;5034241;28;20530;-82
2023/05/22 10:17:11;;;;;;;3.30;2.27;;;;;;;;;;5033944;28;20427;-82
2023/05/22 10:19:38;;;;;;;2.00;1.80;;;;;;;;;;5016446;28;20469;-82
2023/05/22 10:22:04;;;;;;;1.40;1.27;;;;;;;;;;5016449;28;20236;-83
2023/05/22 10:24:30;;;;;;;2.30;2.07;;;;;;;;;;5034282;28;20548;-83
2023/05/22 10:26:57;;;;;;;2.67;2.33;;;;;;;;;;5016374;28;20858;-82
2023/05/22 10:29:28;;;;;;;2.83;1.80;;;;;;;;;;5033733;28;20409;-81
2023/05/22 10:31:58;;;;;;;2.33;2.13;;;;;;;;;;5033320;28;20420;-83
2023/05/22 10:34:29;;;;;;;1.90;1.80;;;;;;;;;;5034039;28;20417;-82
2023/05/22 10:36:58;;;;;;;1.90;1.70;;;;;;;;;;5034054;28;20418;-82
2023/05/22 10:39:37;;;;;;;3.03;2.20;;;;;;;;;;5016255;28;20500;-82
2023/05/22 10:42:03;;;;;;;3.80;1.87;;;;;;;;;;5034024;28;21027;-82
2023/05/22 10:44:32;;;;;;;3.10;1.80;;;;;;;;;;5033879;28;20759;-82
2023/05/22 10:47:08;;;;;;;3.10;2.53;;;;;;;;;;5015758;28;20423;-81
2023/05/22 10:49:35;;;;;;;3.67;1.73;;;;;;;;;;5033853;28;20985;-82
2023/05/22 10:52:02;;;;;;;2.60;2.07;;;;;;;;;;5033740;28;20472;-81
2023/05/22 10:54:52;;;;;;;2.50;2.00;;;;;;;;;;5015827;28;20409;-82
2023/05/22 10:57:19;;;;;;;2.30;2.10;;;;;;;;;;5033609;28;20758;-83
2023/05/22 10:59:48;;;;;;;2.63;2.43;;;;;;;;;;5033520;28;20405;-81
2023/05/22 11:02:29;;;;;;;3.70;2.27;;;;;;;;;;5131137;27;20521;-81
2023/05/22 11:05:10;;;;;;;2.30;2.10;;;;;;;;;;5130212;28;20924;-82
2023/05/22 11:07:40;;;;;;;2.10;1.90;;;;;;;;;;5130146;28;20477;-83
2023/05/22 11:10:06;;;;;;;1.90;1.80;;;;;;;;;;5131176;28;20417;-81
2023/05/22 11:12:32;;;;;;;2.77;2.27;;;;;;;;;;5131085;28;20499;-82
2023/05/22 11:14:59;;;;;;;2.30;2.10;;;;;;;;;;5131218;28;20440;-81
2023/05/22 11:17:28;;;;;;;2.07;1.87;;;;;;;;;;5130773;28;20168;-82
2023/05/22 11:20:01;;;;;;;2.30;2.00;;;;;;;;;;5131046;28;20408;-82
2023/05/22 11:22:30;;;;;;;4.23;2.17;;;;;;;;;;5131196;28;20429;-81
2023/05/22 11:24:56;;;;;;;2.50;2.00;;;;;;;;;;5131216;28;20478;-81
2023/05/22 11:27:22;;;;;;;1.97;1.70;;;;;;;;;;5131095;28;20412;-81
2023/05/22 11:29:48;;;;;;;3.93;1.90;;;;;;;;;;5131161;28;20431;-82
2023/05/22 11:32:19;;;;;;;1.57;1.40;;;;;;;;;;5130732;28;20497;-81
2023/05/22 11:34:45;;;;;;;3.30;2.07;;;;;;;;;;5131114;28;20408;-82
2023/05/22 11:37:11;;;;;;;2.80;2.07;;;;;;;;;;5130957;28;20405;-84
2023/05/22 11:39:37;;;;;;;2.30;1.87;;;;;;;;;;5130787;28;20458;-81
2023/05/22 11:42:03;;;;;;;2.33;2.03;;;;;;;;;;5130761;28;20472;-82
2023/05/22 11:44:29;;;;;;;2.87;2.37;;;;;;;;;;5130749;28;20171;-79
2023/05/22 11:46:55;;;;;;;2.33;1.90;;;;;;;;;;5130274;28;20409;-82
2023/05/22 11:49:22;;;;;;;2.10;1.63;;;;;;;;;;5130651;28;20408;-82
2023/05/22 11:51:49;;;;;;;2.10;1.57;;;;;;;;;;5130704;28;20447;-80
2023/05/22 11:54:18;;;;;;;1.83;1.20;;;;;;;;;;5130906;28;20420;-83
2023/05/22 11:56:45;;;;;;;2.40;2.20;;;;;;;;;;5130494;28;20450;-82
2023/05/22 11:59:10;;;;;;;2.50;2.10;;;;;;;;;;5130370;28;20900;-83
2023/05/22 12:01:36;;;;;;;2.73;1.73;;;;;;;;;;5129838;28;20488;-81
2023/05/22 12:04:04;;;;;;;1.90;1.80;;;;;;;;;;5130336;28;20167;-81
2023/05/22 12:06:32;;;;;;;2.60;2.17;;;;;;;;;;5129032;28;20182;-81
2023/05/22 12:08:58;;;;;;;2.53;2.33;;;;;;;;;;5130167;28;20896;-80
2023/05/22 12:11:26;;;;;;;1.80;1.43;;;;;;;;;;5130067;28;20416;-80
2023/05/22 12:13:59;;;;;;;2.27;2.07;;;;;;;;;;5115842;28;20405;-82
2023/05/22 12:16:25;;;;;;;2.90;2.10;;;;;;;;;;5115960;28;20421;-81
2023/05/22 12:18:52;;;;;;;1.60;1.50;;;;;;;;;;5116322;28;20409;-81
2023/05/22 12:21:19;;;;;;;2.17;1.80;;;;;;;;;;5114781;28;20464;-83
2023/05/22 12:23:49;;;;;;;2.00;1.90;;;;;;;;;;5116066;28;20405;-81
2023/05/22 12:26:15;;;;;;;1.60;1.43;;;;;;;;;;5102229;28;20490;-83
2023/05/22 12:28:41;;;;;;;2.70;1.80;;;;;;;;;;5103041;28;20496;-82
2023/05/22 12:31:07;;;;;;;1.80;1.50;;;;;;;;;;5115326;28;20434;-82
2023/05/22 12:33:33;;;;;;;2.43;2.23;;;;;;;;;;5116045;28;20579;-81
2023/05/22 12:35:59;;;;;;;2.00;1.90;;;;;;;;;;5115709;28;20284;-84
2023/05/22 12:38:31;;;;;;;1.97;1.33;;;;;;;;;;5115903;28;20168;-82
2023/05/22 12:40:57;;;;;;;1.80;1.60;;;;;;;;;;5097494;28;20538;-82
2023/05/22 12:43:24;;;;;;;2.00;1.80;;;;;;;;;;5115826;28;20905;-81
2023/05/22 12:45:50;;;;;;;2.97;1.73;;;;;;;;;;5115740;28;20761;-81
2023/05/22 12:48:16;;;;;;;2.03;1.80;;;;;;;;;;5115420;28;20398;-80
2023/05/22 12:50:45;;;;;;;1.67;1.30;;;;;;;;;;5115640;28;20418;-82
2023/05/22 12:53:11;;;;;;;1.90;1.70;;;;;;;;;;5097498;28;20949;-82
2023/05/22 12:55:37;;;;;;;2.00;1.90;;;;;;;;;;5115540;28;20470;-82
2023/05/22 12:58:06;;;;;;;2.47;1.40;;;;;;;;;;5115383;28;20967;-83
2023/05/22 13:00:33;;;;;;;1.90;1.67;;;;;;;;;;5115269;28;20473;-83
2023/05/22 13:02:59;;;;;;;1.97;1.43;;;;;;;;;;5115161;28;20551;-82
2023/05/22 13:05:25;;;;;;;2.30;1.97;;;;;;;;;;5115019;28;20405;-81
2023/05/22 13:07:51;;;;;;;1.80;1.50;;;;;;;;;;5113863;28;20418;-83
2023/05/22 13:10:18;;;;;;;1.50;1.40;;;;;;;;;;5114054;28;20213;-82
2023/05/22 13:12:46;;;;;;;3.97;1.90;;;;;;;;;;5113825;28;20454;-81
2023/05/22 13:15:14;;;;;;;2.00;1.70;;;;;;;;;;5113925;28;20493;-81
2023/05/22 13:17:40;;;;;;;1.60;1.47;;;;;;;;;;5113345;28;20408;-82
2023/05/22 13:20:06;;;;;;;1.60;1.50;;;;;;;;;;5113775;28;20505;-81
2023/05/22 13:22:32;;;;;;;2.73;1.60;;;;;;;;;;5096658;28;20175;-81
2023/05/22 13:24:58;;;;;;;2.37;1.53;;;;;;;;;;5113453;28;20398;-82
2023/05/22 13:27:25;;;;;;;1.93;1.57;;;;;;;;;;5096616;28;20167;-84
2023/05/22 13:29:51;;;;;;;3.40;2.60;;;;;;;;;;5114772;28;20160;-81
2023/05/22 13:32:18;;;;;;;2.20;1.70;;;;;;;;;;5114322;28;20425;-82
2023/05/22 13:34:44;;;;;;;1.87;1.43;;;;;;;;;;5114547;28;20178;-81
2023/05/22 13:37:10;;;;;;;1.80;1.30;;;;;;;;;;5105369;28;20437;-83
2023/05/22 13:39:36;;;;;;;1.53;1.43;;;;;;;;;;5094588;28;20892;-83
2023/05/22 13:42:02;;;;;;;1.67;1.30;;;;;;;;;;5093939;28;20208;-85
2023/05/22 13:44:28;;;;;;;2.57;1.63;;;;;;;;;;5093781;28;20407;-81
2023/05/22 13:46:54;;;;;;;2.07;1.70;;;;;;;;;;5093322;28;20448;-83
2023/05/22 13:49:20;;;;;;;3.77;1.43;;;;;;;;;;5093838;28;20406;-84
2023/05/22 13:51:46;;;;;;;2.23;1.33;;;;;;;;;;5093577;28;20180;-85
2023/05/22 13:54:12;;;;;;;1.70;1.40;;;;;;;;;;5093769;28;20406;-85
2023/05/22 13:56:38;;;;;;;3.03;1.83;;;;;;;;;;5093548;28;20169;-86
2023/05/22 13:59:04;;;;;;;1.97;1.63;;;;;;;;;;5093496;28;20767;-86
2023/05/22 14:01:30;;;;;;;2.40;1.50;;;;;;;;;;5112973;28;20231;-84
2023/05/22 14:03:56;;;;;;;2.53;2.07;;;;;;;;;;5114074;28;20413;-85
2023/05/22 14:06:23;;;;;;;1.90;1.70;;;;;;;;;;5112846;28;20832;-85
2023/05/22 14:08:49;;;;;;;2.40;1.50;;;;;;;;;;5113986;28;20413;-85
2023/05/22 14:11:15;;;;;;;2.00;1.53;;;;;;;;;;5113786;28;20414;-84
2023/05/22 14:13:41;;;;;;;2.27;1.40;;;;;;;;;;5114000;28;20576;-85
2023/05/22 14:16:07;;;;;;;2.80;1.80;;;;;;;;;;5113483;28;20711;-84
2023/05/22 14:18:32;;;;;;;2.10;1.70;;;;;;;;;;5112600;28;20632;-84
2023/05/22 14:20:58;;;;;;;2.07;1.50;;;;;;;;;;5113652;28;20275;-85
2023/05/22 14:23:24;;;;;;;2.40;1.90;;;;;;;;;;5113718;28;20195;-83
2023/05/22 14:25:50;;;;;;;1.87;1.67;;;;;;;;;;5113161;28;20175;-84
2023/05/22 14:28:17;;;;;;;2.13;1.93;;;;;;;;;;5113300;28;20208;-85
2023/05/22 14:30:42;;;;;;;2.40;1.63;;;;;;;;;;5094322;28;20687;-85
2023/05/22 14:33:08;;;;;;;2.00;1.57;;;;;;;;;;5113564;28;20496;-84
2023/05/22 14:35:34;;;;;;;2.40;2.10;;;;;;;;;;5112741;28;20184;-84
2023/05/22 14:38:01;;;;;;;2.90;2.07;;;;;;;;;;5113497;28;20309;-83
2023/05/22 14:40:26;;;;;;;3.27;1.83;;;;;;;;;;5095180;28;20457;-83
2023/05/22 14:42:52;;;;;;;2.43;1.37;;;;;;;;;;5113511;28;20420;-84